Marion, Ohio
Current Conditions -  °F | °C
As of 4:53 AM on Friday 21 Nov 2014 (Local Time) from KMNN Reporting Station
Clear Clear  
Wind Chill:   Ceiling: Unl
Heat Index: 14°   Visibility: 10mi
Dew Point:   Wind: 6mph
Humidity: 67%   Direction: 290°WNW
Pressure: 30.32"   Gusts: NA
Location:  40.58°N, 83.13°W
Report Text: KMNN 210953Z AUTO 29005KT 10SM CLR M10/M15 A3032 RMK AO2 SLP286 T11001150 TSNO
Loading
Personal Weather Stations






























Interactive Weather Map New forecast layout! Learn more

10-Day Weather Forecast

Advertisements
Track Severe Weather on mobile